Mariana, Brazil
Current Conditions -  °F | °C
As of 5:00 PM on Saturday 25 Oct 2014 (Local Time) from SBPR Reporting Station
Broken Clouds Broken Clouds  
Wind Chill: 84°   Ceiling: 8000
Heat Index: 84°   Visibility: 6mi
Dew Point: 55°   Wind: 0mph
Humidity: 37%   Direction: NA
Pressure: 29.94"   Gusts: NA
Location:  20.38°S, 43.42°W
Report Text: SBPR 251900Z 00000KT 9999 SCT030 BKN080 29/13 Q1014
Loading
Personal Weather Stations






























Interactive Weather Map
Tropical Storm Tracking
New forecast layout! Learn more

10-Day Weather Forecast

Advertisements
Track Severe Weather on mobile